KACY/ACY METAR and TAF weather

Enter ICAO airport designator
Station Type Date Time Source
KACY METAR 2018/10/19 14:54 UTC NOAA

KACY 191454Z 25009KT 10SM CLR 14/03 A3032 RMK AO2 SLP268 T01390028 58014


Station Type Date Time Source
KACY Decoded METAR 2018/10/19 14:54 UTC NOAA

ATLANTIC CITY INTERNATIONAL, NJ, United States (KACY) 39-28N 74-35W 35M
Oct 19, 2018 - 10:54 AM EDT / 2018.10.19 1454 UTC
Wind: from the WSW (250 degrees) at 10 MPH (9 KT):0
Visibility: 10 mile(s):0
Sky conditions: clear
Temperature: 57.0 F (13.9 C)
Dew Point: 37.0 F (2.8 C)
Relative Humidity: 47%
Pressure (altimeter): 30.32 in. Hg (1026 hPa)
Pressure tendency: 0.04 inches (1.4 hPa) lower than three hours ago
ob: KACY 191454Z 25009KT 10SM CLR 14/03 A3032 RMK AO2 SLP268 T01390028 58014
cycle: 15

Station Type Date Time Source
KACY TAF 2018/10/19 12:36 UTC NOAA

TAF KACY 191133Z 1912/2012 25005KT P6SM SKC
FM191500 25008KT P6SM SKC
FM192100 22012KT P6SM SCT250
FM201100 24008KT P6SM OVC050


Example: see airport list